createdAt,value
2022-10-15T00:01:22.560Z,24.33
2022-10-15T00:03:49.755Z,23.81
2022-10-15T00:06:21.176Z,24.82
2022-10-15T00:08:48.733Z,24.61
2022-10-15T00:11:22.555Z,25.03
2022-10-15T00:13:50.556Z,24.38
2022-10-15T00:16:21.838Z,24.08
2022-10-15T00:18:49.848Z,24.29
2022-10-15T00:21:19.966Z,23.98
2022-10-15T00:23:48.283Z,24.53
2022-10-15T00:26:25.533Z,24.45
2022-10-15T00:28:55.605Z,24.41
2022-10-15T00:31:27.082Z,27.51
2022-10-15T00:33:57.621Z,26.72
2022-10-15T00:36:34.659Z,24.70
2022-10-15T00:39:03.531Z,26.06
2022-10-15T00:41:42.901Z,26.24
2022-10-15T00:44:22.503Z,25.65
2022-10-15T00:47:04.026Z,26.30
2022-10-15T00:49:34.522Z,26.40
2022-10-15T00:52:10.889Z,25.78
2022-10-15T00:54:43.229Z,25.10
2022-10-15T00:57:11.383Z,24.44
2022-10-15T00:59:44.939Z,24.46
2022-10-15T01:02:15.899Z,22.74
2022-10-15T01:04:42.943Z,24.40
2022-10-15T01:07:09.977Z,24.31
2022-10-15T01:09:39.972Z,24.45
2022-10-15T01:12:37.651Z,23.92
2022-10-15T01:15:31.742Z,23.89
2022-10-15T01:18:23.507Z,23.99
2022-10-15T01:21:01.416Z,22.78
2022-10-15T01:24:11.067Z,23.83
2022-10-15T01:27:02.874Z,22.79
2022-10-15T01:30:13.534Z,22.43
2022-10-15T01:33:07.343Z,21.92
2022-10-15T01:36:00.164Z,22.76
2022-10-15T01:38:57.543Z,22.75
2022-10-15T01:41:45.271Z,21.99
2022-10-15T01:44:20.927Z,24.22
2022-10-15T01:47:23.219Z,24.21
2022-10-15T01:49:54.560Z,24.09
2022-10-15T01:54:59.807Z,25.57
2022-10-15T01:57:29.822Z,23.05
2022-10-15T01:59:57.746Z,28.99
2022-10-15T02:02:25.504Z,30.45
2022-10-15T02:04:52.788Z,28.71
2022-10-15T02:07:55.412Z,28.02
2022-10-15T02:10:54.856Z,27.76
2022-10-15T02:13:50.078Z,31.55
2022-10-15T02:16:59.521Z,24.80
2022-10-15T02:19:44.980Z,24.48
2022-10-15T02:22:22.401Z,23.10
2022-10-15T02:25:05.605Z,24.30
2022-10-15T02:27:34.199Z,23.99
2022-10-15T02:30:06.972Z,24.60
2022-10-15T02:32:40.374Z,23.59
2022-10-15T02:35:10.145Z,23.33
2022-10-15T02:37:45.598Z,23.73
2022-10-15T02:40:13.014Z,23.03
2022-10-15T02:42:40.443Z,23.11
2022-10-15T02:45:09.248Z,24.11
2022-10-15T02:47:36.299Z,22.46
2022-10-15T02:50:04.854Z,22.77
2022-10-15T02:52:31.873Z,22.78
2022-10-15T02:54:59.954Z,22.80
2022-10-15T02:57:27.334Z,23.33
2022-10-15T02:59:54.451Z,25.16
2022-10-15T03:02:21.493Z,24.34
2022-10-15T03:04:48.531Z,24.14
2022-10-15T03:07:15.729Z,24.55
2022-10-15T03:09:43.042Z,23.96
2022-10-15T03:12:10.022Z,25.03
2022-10-15T03:14:37.441Z,23.57
2022-10-15T03:17:04.934Z,23.76
2022-10-15T03:19:31.961Z,24.83
2022-10-15T03:21:59.053Z,25.46
2022-10-15T03:24:32.729Z,24.97
2022-10-15T03:26:59.973Z,25.35
2022-10-15T03:29:26.997Z,24.24
2022-10-15T03:32:00.277Z,24.23
2022-10-15T03:34:27.391Z,24.35
2022-10-15T03:36:54.945Z,24.13
2022-10-15T03:39:22.057Z,26.34
2022-10-15T03:41:53.950Z,25.65
2022-10-15T03:44:26.495Z,45.08
2022-10-15T03:47:04.675Z,43.62
2022-10-15T03:49:41.556Z,44.72
2022-10-15T03:52:08.624Z,43.46
2022-10-15T03:54:35.954Z,43.35
2022-10-15T03:57:03.129Z,41.42
2022-10-15T03:59:35.426Z,46.10
2022-10-15T04:02:03.700Z,45.70
2022-10-15T04:04:32.623Z,44.62
2022-10-15T04:07:00.188Z,44.09
2022-10-15T04:09:28.556Z,45.36
2022-10-15T04:12:16.626Z,43.88
2022-10-15T04:14:43.924Z,45.32
2022-10-15T04:17:11.513Z,45.37
2022-10-15T04:19:39.087Z,40.05
2022-10-15T04:22:06.555Z,43.17
2022-10-15T04:24:42.069Z,45.94
2022-10-15T04:27:12.840Z,44.07
2022-10-15T04:29:39.904Z,43.14
2022-10-15T04:32:15.298Z,42.26
2022-10-15T04:34:43.281Z,41.43
2022-10-15T04:37:10.557Z,24.81
2022-10-15T04:39:38.117Z,23.78
2022-10-15T04:42:05.409Z,25.01
2022-10-15T04:44:34.129Z,24.04
2022-10-15T04:47:02.425Z,24.31
2022-10-15T04:49:49.630Z,22.39
2022-10-15T04:52:30.413Z,23.43
2022-10-15T04:55:04.785Z,22.70
2022-10-15T04:57:32.386Z,22.66
2022-10-15T04:59:59.388Z,23.72
2022-10-15T05:02:49.263Z,23.64
2022-10-15T05:05:21.987Z,24.64
2022-10-15T05:08:04.421Z,24.13
2022-10-15T05:10:38.371Z,24.48
2022-10-15T05:13:07.907Z,23.35
2022-10-15T05:15:37.727Z,23.88
2022-10-15T05:18:07.826Z,24.02
2022-10-15T05:20:44.208Z,24.14
2022-10-15T05:23:15.765Z,24.78
2022-10-15T05:25:53.135Z,25.00
2022-10-15T05:28:23.956Z,24.76
2022-10-15T05:30:51.046Z,23.38
2022-10-15T05:33:18.446Z,24.64
2022-10-15T05:35:45.481Z,24.79
2022-10-15T05:38:12.532Z,25.08
2022-10-15T05:40:40.408Z,24.99
2022-10-15T05:43:14.135Z,24.65
2022-10-15T05:45:41.339Z,24.73
2022-10-15T05:48:08.382Z,24.21
2022-10-15T05:50:36.205Z,24.76
2022-10-15T05:53:06.827Z,24.65
2022-10-15T05:55:47.562Z,24.73
2022-10-15T05:58:14.566Z,24.60
2022-10-15T06:00:41.547Z,24.99
2022-10-15T06:03:14.170Z,23.66
2022-10-15T06:05:41.156Z,24.95
2022-10-15T06:08:08.243Z,23.95
2022-10-15T06:10:38.311Z,24.25
2022-10-15T06:13:06.108Z,24.90
2022-10-15T06:15:33.806Z,24.83
2022-10-15T06:18:01.942Z,24.65
2022-10-15T06:20:29.044Z,25.00
2022-10-15T06:23:00.579Z,24.46
2022-10-15T06:25:28.329Z,24.56
2022-10-15T06:27:55.341Z,24.94
2022-10-15T06:30:25.464Z,24.46
2022-10-15T06:32:53.670Z,24.02
2022-10-15T06:35:23.022Z,24.33
2022-10-15T06:37:50.208Z,23.72
2022-10-15T06:40:17.815Z,24.90
2022-10-15T06:42:45.538Z,24.55
2022-10-15T06:45:14.888Z,23.44
2022-10-15T06:47:44.035Z,23.84
2022-10-15T06:50:12.189Z,24.82
2022-10-15T06:52:39.526Z,24.58
2022-10-15T06:55:07.142Z,24.56
2022-10-15T06:57:34.114Z,23.77
2022-10-15T07:00:01.083Z,24.28
2022-10-15T07:02:28.081Z,24.04
2022-10-15T07:04:55.717Z,24.26
2022-10-15T07:07:23.542Z,24.37
2022-10-15T07:09:53.513Z,23.97
2022-10-15T07:12:22.622Z,23.55
2022-10-15T07:14:49.889Z,23.92
2022-10-15T07:17:17.360Z,23.56
2022-10-15T07:19:44.334Z,23.47
2022-10-15T07:22:11.485Z,23.36
2022-10-15T07:24:38.452Z,24.13
2022-10-15T07:27:08.222Z,24.68
2022-10-15T07:29:45.329Z,24.29
2022-10-15T07:32:12.384Z,24.16
2022-10-15T07:34:39.424Z,22.82
2022-10-15T07:37:06.445Z,23.73
2022-10-15T07:39:35.542Z,22.99
2022-10-15T07:42:06.061Z,24.35
2022-10-15T07:44:33.122Z,24.54
2022-10-15T07:47:00.078Z,24.20
2022-10-15T07:49:27.037Z,24.42
2022-10-15T07:51:54.085Z,24.02
2022-10-15T07:54:21.493Z,24.77
2022-10-15T07:56:48.425Z,23.91
2022-10-15T07:59:15.406Z,23.96
2022-10-15T08:01:44.167Z,24.21
2022-10-15T08:04:14.035Z,24.24
2022-10-15T08:06:43.371Z,24.67
2022-10-15T08:09:10.394Z,23.80
2022-10-15T08:11:37.514Z,23.81
2022-10-15T08:14:05.768Z,24.20
2022-10-15T08:16:32.801Z,24.66
2022-10-15T08:19:00.830Z,24.11
2022-10-15T08:21:27.920Z,23.47
2022-10-15T08:23:54.938Z,23.35
2022-10-15T08:26:33.861Z,23.98
2022-10-15T08:29:01.501Z,24.65
2022-10-15T08:31:28.591Z,23.57
2022-10-15T08:33:55.622Z,24.55
2022-10-15T08:36:22.602Z,24.93
2022-10-15T08:38:50.771Z,24.40
2022-10-15T08:41:26.299Z,23.88
2022-10-15T08:43:53.507Z,24.21
2022-10-15T08:46:36.944Z,24.19
2022-10-15T08:49:04.899Z,22.94
2022-10-15T08:51:49.725Z,22.89
2022-10-15T08:54:19.489Z,23.50
2022-10-15T08:56:54.387Z,24.15
2022-10-15T08:59:49.969Z,23.77
2022-10-15T09:02:34.320Z,25.36
2022-10-15T09:05:22.803Z,24.97
2022-10-15T09:08:02.891Z,24.99
2022-10-15T09:10:33.783Z,25.29
2022-10-15T09:13:11.413Z,25.10
2022-10-15T09:15:51.257Z,24.90
2022-10-15T09:18:24.046Z,25.39
2022-10-15T09:20:51.228Z,25.10
2022-10-15T09:23:25.883Z,25.98
2022-10-15T09:25:59.226Z,25.61
2022-10-15T09:28:44.880Z,25.96
2022-10-15T09:31:17.096Z,25.75
2022-10-15T09:33:55.101Z,26.26
2022-10-15T09:36:46.584Z,26.06
2022-10-15T09:39:25.758Z,25.87
2022-10-15T09:42:36.344Z,26.36
2022-10-15T09:45:15.764Z,26.98
2022-10-15T09:47:44.285Z,26.79
2022-10-15T09:50:14.302Z,26.54
2022-10-15T09:53:20.595Z,26.28
2022-10-15T09:56:10.457Z,25.60
2022-10-15T09:58:59.215Z,25.97
2022-10-15T10:01:29.913Z,25.57
2022-10-15T10:04:12.769Z,26.23
2022-10-15T10:06:50.130Z,25.70
2022-10-15T10:09:23.859Z,26.54
2022-10-15T10:12:00.963Z,25.97
2022-10-15T10:14:43.117Z,26.04
2022-10-15T10:17:21.367Z,26.06
2022-10-15T10:20:10.182Z,25.31
2022-10-15T10:23:01.985Z,25.22
2022-10-15T10:25:42.626Z,24.72
2022-10-15T10:28:09.788Z,24.38
2022-10-15T10:30:48.448Z,25.70
2022-10-15T10:33:26.242Z,25.46
2022-10-15T10:35:53.551Z,25.58
2022-10-15T10:38:27.746Z,24.54
2022-10-15T10:41:09.724Z,24.98
2022-10-15T10:43:41.252Z,25.91
2022-10-15T10:46:14.860Z,25.76
2022-10-15T10:48:52.002Z,26.19
2022-10-15T10:51:23.254Z,26.30
2022-10-15T10:54:05.835Z,25.97
2022-10-15T10:56:40.581Z,25.61
2022-10-15T10:59:15.558Z,25.60
2022-10-15T11:01:43.460Z,25.66
2022-10-15T11:04:23.247Z,26.26
2022-10-15T11:07:27.048Z,26.17
2022-10-15T11:10:22.718Z,26.78
2022-10-15T11:13:41.277Z,26.20
2022-10-15T11:16:45.195Z,25.16
2022-10-15T11:20:20.051Z,26.40
2022-10-15T11:22:37.220Z,25.19
2022-10-15T11:25:38.824Z,25.07
2022-10-15T11:28:43.148Z,25.10
2022-10-15T11:31:24.984Z,25.97
2022-10-15T11:34:22.231Z,26.41
2022-10-15T11:37:34.284Z,26.38
2022-10-15T11:40:25.206Z,25.42
2022-10-15T11:42:57.644Z,25.96
2022-10-15T11:45:39.632Z,26.50
2022-10-15T11:48:38.808Z,26.30
2022-10-15T11:51:30.727Z,25.79
2022-10-15T11:54:36.849Z,26.74
2022-10-15T11:57:12.545Z,27.47
2022-10-15T11:59:54.522Z,26.91
2022-10-15T12:02:41.229Z,27.63
2022-10-15T12:05:13.940Z,27.22
2022-10-15T12:07:43.836Z,26.94
2022-10-15T12:10:21.099Z,26.50
2022-10-15T12:13:04.129Z,26.78
2022-10-15T12:15:53.276Z,26.64
2022-10-15T12:18:38.494Z,27.17
2022-10-15T12:21:31.154Z,26.26
2022-10-15T12:23:58.132Z,26.07
2022-10-15T12:26:25.026Z,26.54
2022-10-15T12:28:58.322Z,25.75
2022-10-15T12:31:59.242Z,25.32
2022-10-15T12:34:36.879Z,24.74
2022-10-15T12:37:18.697Z,25.67
2022-10-15T12:39:52.573Z,25.62
2022-10-15T12:42:31.946Z,26.44
2022-10-15T12:45:03.949Z,26.05
2022-10-15T12:47:56.028Z,26.06
2022-10-15T12:50:25.336Z,24.98
2022-10-15T12:53:03.399Z,24.97
2022-10-15T12:55:40.415Z,25.41
2022-10-15T12:59:02.659Z,26.60
2022-10-15T13:01:46.516Z,26.44
2022-10-15T13:04:13.493Z,24.68
2022-10-15T13:06:41.171Z,34.00
2022-10-15T13:09:11.392Z,29.54
2022-10-15T13:14:42.994Z,28.03
2022-10-15T13:17:20.073Z,27.92
2022-10-15T13:20:04.761Z,27.72
2022-10-15T13:22:34.350Z,26.44
2022-10-15T13:25:02.420Z,26.66
2022-10-15T13:27:34.858Z,27.34
2022-10-15T13:30:09.416Z,27.02
2022-10-15T13:32:52.873Z,26.52
2022-10-15T13:35:26.310Z,25.94
2022-10-15T13:37:53.354Z,26.15
2022-10-15T13:40:26.157Z,25.61
2022-10-15T13:43:02.116Z,26.38
2022-10-15T13:45:29.562Z,26.72
2022-10-15T13:47:57.071Z,27.18
2022-10-15T13:50:36.288Z,26.81
2022-10-15T13:53:24.233Z,26.44
2022-10-15T13:55:54.974Z,26.65
2022-10-15T13:58:36.639Z,27.17
2022-10-15T14:01:08.873Z,26.33
2022-10-15T14:03:39.263Z,25.70
2022-10-15T14:06:26.125Z,25.61
2022-10-15T14:09:20.311Z,26.60
2022-10-15T14:11:47.408Z,26.60
2022-10-15T14:14:41.517Z,26.63
2022-10-15T14:17:24.336Z,26.43
2022-10-15T14:20:25.777Z,25.75
2022-10-15T14:22:50.190Z,26.50
2022-10-15T14:25:23.999Z,26.78
2022-10-15T14:27:51.321Z,26.90
2022-10-15T14:30:44.161Z,27.21
2022-10-15T14:33:31.938Z,26.84
2022-10-15T14:36:24.358Z,26.78
2022-10-15T14:38:53.691Z,26.27
2022-10-15T14:41:29.121Z,26.38
2022-10-15T14:44:11.310Z,26.68
2022-10-15T14:46:47.564Z,25.41
2022-10-15T14:49:34.933Z,26.05
2022-10-15T14:52:07.019Z,26.20
2022-10-15T14:54:42.796Z,26.37
2022-10-15T14:57:29.202Z,26.29
2022-10-15T14:59:57.658Z,26.05
2022-10-15T15:02:27.695Z,25.51
2022-10-15T15:05:13.258Z,25.35
2022-10-15T15:07:40.909Z,26.18
2022-10-15T15:10:09.350Z,26.37
2022-10-15T15:12:38.533Z,26.49
2022-10-15T15:15:17.504Z,26.34
2022-10-15T15:17:45.041Z,26.36
2022-10-15T15:20:12.951Z,26.28
2022-10-15T15:22:42.075Z,26.36
2022-10-15T15:25:25.087Z,26.70
2022-10-15T15:27:52.220Z,26.69
2022-10-15T15:30:30.377Z,26.52
2022-10-15T15:32:58.023Z,25.99
2022-10-15T15:35:33.953Z,26.46
2022-10-15T15:38:01.016Z,26.00
2022-10-15T15:40:28.027Z,25.69
2022-10-15T15:42:56.540Z,25.95
2022-10-15T15:45:26.179Z,25.81
2022-10-15T15:47:53.997Z,26.03
2022-10-15T15:50:21.855Z,26.55
2022-10-15T15:52:49.088Z,25.64
2022-10-15T15:55:16.773Z,26.23
2022-10-15T15:57:45.412Z,26.26
2022-10-15T16:00:13.888Z,26.26
2022-10-15T16:02:41.174Z,26.12
2022-10-15T16:05:11.120Z,26.17
2022-10-15T16:07:38.308Z,25.91
2022-10-15T16:10:09.231Z,26.57
2022-10-15T16:12:36.757Z,26.41
2022-10-15T16:15:05.078Z,26.68
2022-10-15T16:17:33.293Z,26.75
2022-10-15T16:20:00.393Z,26.39
2022-10-15T16:22:27.358Z,26.17
2022-10-15T16:24:55.338Z,25.54
2022-10-15T16:27:23.115Z,26.09
2022-10-15T16:29:50.376Z,25.61
2022-10-15T16:32:17.371Z,26.03
2022-10-15T16:34:44.391Z,26.28
2022-10-15T16:37:11.356Z,26.26
2022-10-15T16:39:38.813Z,26.14
2022-10-15T16:42:05.984Z,26.20
2022-10-15T16:44:32.957Z,26.05
2022-10-15T16:46:59.971Z,25.98
2022-10-15T16:49:27.516Z,26.09
2022-10-15T16:51:55.023Z,26.05
2022-10-15T16:54:22.088Z,26.03
2022-10-15T16:56:52.789Z,25.20
2022-10-15T16:59:20.575Z,25.47
2022-10-15T17:01:47.577Z,24.83
2022-10-15T17:04:14.625Z,25.54
2022-10-15T17:06:41.610Z,25.27
2022-10-15T17:09:09.035Z,25.21
2022-10-15T17:11:40.333Z,25.34
2022-10-15T17:14:10.893Z,25.46
2022-10-15T17:16:47.753Z,24.87
2022-10-15T17:19:18.426Z,25.44
2022-10-15T17:21:47.107Z,24.92
2022-10-15T17:24:16.826Z,24.78
2022-10-15T17:26:46.026Z,24.81
2022-10-15T17:29:20.589Z,25.15
2022-10-15T17:31:49.195Z,25.27
2022-10-15T17:34:17.260Z,24.99
2022-10-15T17:36:48.186Z,24.99
2022-10-15T17:39:19.246Z,24.87
2022-10-15T17:41:46.445Z,24.71
2022-10-15T17:44:13.625Z,24.46
2022-10-15T17:46:41.260Z,24.88
2022-10-15T17:49:11.919Z,24.81
2022-10-15T17:51:39.629Z,24.99
2022-10-15T17:54:06.788Z,24.75
2022-10-15T17:56:36.188Z,24.29
2022-10-15T17:59:06.357Z,23.68
2022-10-15T18:01:57.312Z,24.74
2022-10-15T18:04:26.495Z,25.20
2022-10-15T18:06:53.754Z,25.15
2022-10-15T18:09:28.070Z,25.50
2022-10-15T18:11:57.214Z,25.79
2022-10-15T18:14:29.290Z,25.71
2022-10-15T18:16:57.070Z,24.82
2022-10-15T18:19:26.412Z,24.90
2022-10-15T18:21:53.864Z,24.98
2022-10-15T18:24:23.297Z,24.66
2022-10-15T18:26:51.571Z,24.15
2022-10-15T18:29:19.174Z,24.66
2022-10-15T18:31:53.411Z,24.91
2022-10-15T18:34:23.418Z,24.55
2022-10-15T18:36:50.529Z,25.49
2022-10-15T18:39:17.595Z,24.80
2022-10-15T18:44:17.904Z,25.86
2022-10-15T18:46:45.662Z,25.27
2022-10-15T18:49:15.481Z,24.57
2022-10-15T18:51:43.361Z,24.46
2022-10-15T18:54:10.855Z,24.19
2022-10-15T18:56:38.597Z,24.72
2022-10-15T18:59:05.572Z,24.25
2022-10-15T19:01:39.197Z,25.95
2022-10-15T19:04:16.568Z,24.96
2022-10-15T19:06:47.078Z,25.49
2022-10-15T19:09:17.868Z,25.32
2022-10-15T19:11:48.342Z,25.28
2022-10-15T19:14:15.826Z,24.82
2022-10-15T19:16:45.113Z,25.17
2022-10-15T19:19:16.231Z,24.57
2022-10-15T19:21:44.480Z,24.68
2022-10-15T19:24:12.712Z,24.71
2022-10-15T19:26:39.864Z,24.74
2022-10-15T19:29:07.053Z,24.57
2022-10-15T19:31:38.799Z,25.07
2022-10-15T19:34:06.027Z,25.12
2022-10-15T19:36:37.644Z,25.46
2022-10-15T19:39:14.025Z,25.15
2022-10-15T19:41:42.942Z,25.11
2022-10-15T19:44:13.465Z,25.07
2022-10-15T19:46:40.831Z,24.69
2022-10-15T19:49:10.048Z,23.87
2022-10-15T19:51:37.070Z,25.09
2022-10-15T19:54:04.221Z,24.85
2022-10-15T19:56:31.877Z,24.70
2022-10-15T19:59:03.745Z,25.12
2022-10-15T20:01:30.763Z,24.63
2022-10-15T20:04:03.206Z,24.83
2022-10-15T20:06:33.699Z,24.86
2022-10-15T20:09:02.229Z,24.41
2022-10-15T20:11:29.482Z,24.32
2022-10-15T20:13:58.048Z,24.32
2022-10-15T20:16:26.379Z,24.56
2022-10-15T20:18:56.625Z,24.72
2022-10-15T20:21:23.750Z,24.47
2022-10-15T20:23:50.986Z,24.90
2022-10-15T20:26:18.063Z,24.44
2022-10-15T20:28:46.455Z,24.81
2022-10-15T20:31:20.351Z,24.98
2022-10-15T20:33:49.066Z,25.03
2022-10-15T20:36:22.564Z,24.96
2022-10-15T20:38:51.610Z,23.89
2022-10-15T20:41:19.672Z,24.39
2022-10-15T20:43:47.274Z,24.78
2022-10-15T20:46:30.414Z,24.94
2022-10-15T20:52:53.903Z,25.35
2022-10-15T20:55:21.188Z,24.67
2022-10-15T20:57:48.582Z,24.16
2022-10-15T21:00:18.559Z,24.56
2022-10-15T21:02:47.864Z,24.26
2022-10-15T21:05:15.092Z,24.33
2022-10-15T21:07:42.135Z,24.62
2022-10-15T21:10:09.478Z,24.43
2022-10-15T21:12:36.524Z,24.18
2022-10-15T21:15:03.978Z,24.22
2022-10-15T21:17:30.937Z,24.52
2022-10-15T21:19:57.943Z,24.40
2022-10-15T21:22:25.005Z,23.98
2022-10-15T21:24:52.173Z,24.27
2022-10-15T21:27:19.620Z,24.27
2022-10-15T21:29:46.632Z,23.82
2022-10-15T21:32:13.610Z,24.32
2022-10-15T21:37:07.933Z,24.04
2022-10-15T21:39:34.897Z,24.05
2022-10-15T21:42:01.937Z,23.96
2022-10-15T21:44:28.925Z,24.25
2022-10-15T21:46:56.066Z,24.11
2022-10-15T21:49:23.309Z,24.60
2022-10-15T21:51:50.292Z,24.21
2022-10-15T21:54:17.347Z,24.38
2022-10-15T21:56:44.300Z,24.39
2022-10-15T21:59:11.336Z,24.64
2022-10-15T22:01:41.251Z,24.86
2022-10-15T22:04:10.641Z,24.20
2022-10-15T22:06:42.510Z,23.89
2022-10-15T22:09:10.162Z,24.25
2022-10-15T22:11:41.222Z,24.49
2022-10-15T22:14:12.451Z,24.42
2022-10-15T22:16:41.450Z,24.52
2022-10-15T22:19:10.764Z,24.56
2022-10-15T22:21:39.160Z,24.97
2022-10-15T22:24:13.669Z,24.34
2022-10-15T22:26:44.469Z,24.79
2022-10-15T22:29:31.694Z,24.51
2022-10-15T22:32:02.621Z,24.99
2022-10-15T22:34:29.676Z,24.71
2022-10-15T22:36:56.799Z,24.42
2022-10-15T22:39:24.018Z,24.97
2022-10-15T22:41:51.015Z,24.93
2022-10-15T22:44:20.735Z,25.22
2022-10-15T22:46:51.448Z,25.16
2022-10-15T22:49:21.683Z,25.19
2022-10-15T22:51:50.646Z,25.00
2022-10-15T22:54:20.842Z,24.56
2022-10-15T22:56:49.543Z,24.95
2022-10-15T22:59:16.841Z,24.43
2022-10-15T23:01:45.484Z,24.67
2022-10-15T23:04:14.555Z,23.55
2022-10-15T23:06:41.596Z,23.59
2022-10-15T23:09:09.260Z,23.76
2022-10-15T23:11:39.591Z,24.21
2022-10-15T23:14:15.708Z,24.49
2022-10-15T23:16:46.507Z,24.55
2022-10-15T23:19:20.068Z,23.99
2022-10-15T23:22:02.591Z,23.81
2022-10-15T23:24:29.631Z,24.04
2022-10-15T23:26:56.628Z,24.37
2022-10-15T23:29:26.258Z,24.95
2022-10-15T23:31:54.561Z,24.71
2022-10-15T23:34:26.659Z,24.80
2022-10-15T23:36:53.837Z,24.90
2022-10-15T23:39:24.830Z,24.96
2022-10-15T23:41:52.027Z,24.47
2022-10-15T23:44:19.611Z,24.30
2022-10-15T23:46:46.730Z,24.56
2022-10-15T23:49:14.049Z,24.67
2022-10-15T23:51:41.444Z,24.32
2022-10-15T23:54:18.228Z,24.52
2022-10-15T23:56:46.793Z,24.20
2022-10-15T23:59:13.949Z,24.07
